Time;durP1;ratioP1;P1;durP2;ratioP2;P2;SDS_P1;SDS_P2;PMS_P1;PMS_P2;Temp;Humidity;BMP_temperature;BMP_pressure;BME280_temperature;BME280_humidity;BME280_pressure;Samples;Min_cycle;Max_cycle;Signal;HPM_P1;HPM_P2
2022/01/11 00:02:16;;;;;;;32.55;19.08;;;;;;;9.08;100.00;101572.44;5075828;28;20063;-52
2022/01/11 00:04:44;;;;;;;36.33;20.02;;;;;;;9.06;100.00;101568.97;5076667;28;20057;-51
2022/01/11 00:07:15;;;;;;;32.78;18.27;;;;;;;9.09;100.00;101566.22;5075713;28;20060;-49
2022/01/11 00:09:45;;;;;;;29.05;17.90;;;;;;;9.09;100.00;101568.88;5074824;28;20558;-52
2022/01/11 00:12:13;;;;;;;29.88;16.30;;;;;;;9.11;100.00;101569.66;5076148;28;20059;-52
2022/01/11 00:14:41;;;;;;;26.50;16.77;;;;;;;9.10;100.00;101571.47;5076282;28;20053;-52
2022/01/11 00:17:11;;;;;;;29.98;17.73;;;;;;;9.12;100.00;101574.03;5075466;28;20061;-52
2022/01/11 00:26:06;;;;;;;23.83;12.80;;;;;;;9.19;100.00;101569.38;5076026;28;20056;-52
2022/01/11 00:28:34;;;;;;;23.65;13.70;;;;;;;9.18;100.00;101579.09;5075837;28;20071;-52
2022/01/11 00:31:06;;;;;;;28.95;14.00;;;;;;;9.16;100.00;101580.94;5074933;28;20053;-52
2022/01/11 00:33:39;;;;;;;27.33;14.07;;;;;;;9.19;100.00;101578.16;5075224;28;20091;-52
2022/01/11 00:36:07;;;;;;;;;;;;;;;9.20;100.00;101577.25;5075124;28;20439;-50
2022/01/11 00:38:37;;;;;;;27.58;14.73;;;;;;;9.23;100.00;101582.44;5075493;28;19931;-49
2022/01/11 00:41:07;;;;;;;26.00;15.10;;;;;;;9.23;100.00;101587.72;5075091;28;20063;-49
2022/01/11 00:43:37;;;;;;;26.08;13.05;;;;;;;9.25;100.00;101580.59;5074473;28;20057;-49
2022/01/11 00:46:06;;;;;;;28.67;14.57;;;;;;;9.23;100.00;101597.44;5075236;28;20073;-51
2022/01/11 00:48:39;;;;;;;23.65;13.90;;;;;;;9.19;100.00;101590.56;5074629;28;20061;-49
2022/01/11 00:51:09;;;;;;;25.23;13.15;;;;;;;9.25;100.00;101591.19;5075800;28;20134;-50
2022/01/11 00:53:37;;;;;;;29.38;13.23;;;;;;;9.25;100.00;101596.47;5074875;28;20095;-50
2022/01/11 00:56:06;;;;;;;22.73;12.52;;;;;;;9.21;100.00;101597.53;5074875;28;20053;-50
2022/01/11 00:58:34;;;;;;;21.63;13.00;;;;;;;9.22;100.00;101596.59;5074418;28;20063;-51
2022/01/11 01:01:02;;;;;;;21.42;13.13;;;;;;;9.22;100.00;101595.72;5074464;28;20056;-52
2022/01/11 01:03:31;;;;;;;22.52;11.95;;;;;;;9.19;100.00;101602.00;5074715;28;20545;-50
2022/01/11 01:06:00;;;;;;;22.63;13.63;;;;;;;9.18;100.00;101600.28;5074683;28;20075;-52
2022/01/11 01:08:29;;;;;;;25.23;11.95;;;;;;;9.23;100.00;101598.31;5074944;28;20393;-51
2022/01/11 01:10:57;;;;;;;21.02;12.32;;;;;;;9.20;100.00;101593.13;5074308;28;20068;-51
2022/01/11 01:13:27;;;;;;;23.10;12.20;;;;;;;9.17;100.00;101598.56;5074325;28;20052;-51
2022/01/11 01:15:56;;;;;;;20.63;12.93;;;;;;;9.18;100.00;101596.75;5073982;28;20064;-50
2022/01/11 01:18:26;;;;;;;21.30;12.32;;;;;;;9.15;100.00;101597.75;5074143;28;20063;-51
2022/01/11 01:20:55;;;;;;;21.65;12.38;;;;;;;9.14;100.00;101593.38;5073474;28;20143;-52
2022/01/11 01:23:25;;;;;;;22.85;12.27;;;;;;;9.14;100.00;101593.38;5074184;28;20419;-51
2022/01/11 01:25:54;;;;;;;18.35;11.80;;;;;;;9.07;100.00;101597.19;5074217;28;20586;-51
2022/01/11 01:28:22;;;;;;;20.98;12.35;;;;;;;8.99;100.00;101588.66;5074436;28;20067;-50
2022/01/11 01:30:52;;;;;;;23.63;13.00;;;;;;;8.90;100.00;101590.75;5074426;28;20056;-49
2022/01/11 01:33:21;;;;;;;19.75;11.50;;;;;;;8.86;100.00;101593.56;5074053;28;20102;-50
2022/01/11 01:35:53;;;;;;;22.77;12.57;;;;;;;8.89;100.00;101596.97;5073826;28;20060;-51
2022/01/11 01:38:24;;;;;;;24.08;12.40;;;;;;;8.83;100.00;101605.13;5073742;28;20063;-51
2022/01/11 01:40:58;;;;;;;21.52;11.68;;;;;;;8.74;100.00;101605.47;5073851;28;20063;-51
2022/01/11 01:43:27;;;;;;;21.05;12.20;;;;;;;8.69;100.00;101603.00;5073753;28;20056;-52
2022/01/11 01:45:58;;;;;;;20.80;12.52;;;;;;;8.74;100.00;101611.63;5074228;28;20056;-49
2022/01/11 01:48:27;;;;;;;22.13;12.80;;;;;;;8.73;100.00;101606.41;5075022;28;20060;-51
2022/01/11 01:50:55;;;;;;;22.50;12.88;;;;;;;8.72;100.00;101607.31;5074771;28;20064;-50
2022/01/11 01:53:24;;;;;;;20.75;11.57;;;;;;;8.69;100.00;101612.69;5074215;28;20052;-49
2022/01/11 01:55:54;;;;;;;24.80;12.32;;;;;;;8.69;100.00;101618.00;5075053;28;20388;-50
2022/01/11 01:58:22;;;;;;;22.20;12.95;;;;;;;8.65;100.00;101611.97;5074407;28;20056;-51
2022/01/11 02:00:55;;;;;;;21.13;12.73;;;;;;;8.67;100.00;101617.19;5073820;28;20068;-51
2022/01/11 02:03:27;;;;;;;22.25;12.75;;;;;;;8.64;100.00;101620.84;5073540;28;20056;-51
2022/01/11 02:05:56;;;;;;;20.77;12.05;;;;;;;8.70;100.00;101627.66;5073546;28;20063;-49
2022/01/11 02:08:25;;;;;;;21.60;12.73;;;;;;;8.68;100.00;101626.88;5073883;28;20076;-50
2022/01/11 02:10:55;;;;;;;23.95;13.27;;;;;;;8.61;100.00;101633.28;5074047;28;20075;-51
2022/01/11 02:13:23;;;;;;;20.70;12.02;;;;;;;8.53;100.00;101629.13;5073686;28;20048;-50
2022/01/11 02:15:52;;;;;;;23.48;13.32;;;;;;;8.46;100.00;101632.94;5074263;28;20060;-51
2022/01/11 02:18:23;;;;;;;24.30;12.60;;;;;;;8.44;100.00;101637.41;5073873;28;20416;-52
2022/01/11 02:20:55;;;;;;;32.25;14.35;;;;;;;8.42;100.00;101639.19;5074188;28;20099;-49
2022/01/11 02:23:24;;;;;;;25.83;13.40;;;;;;;8.34;100.00;101639.47;5074279;28;20056;-52
2022/01/11 02:25:52;;;;;;;25.65;13.75;;;;;;;8.33;100.00;101636.88;5073320;28;20052;-51
2022/01/11 02:28:22;;;;;;;31.23;15.18;;;;;;;8.38;100.00;101641.06;5074663;28;20056;-51
2022/01/11 02:30:52;;;;;;;29.83;14.23;;;;;;;8.42;100.00;101644.47;5073952;28;20057;-51
2022/01/11 02:33:32;;;;;;;30.45;14.98;;;;;;;8.43;100.00;101642.75;5077544;28;20448;-51
2022/01/11 02:36:04;;;;;;;29.85;15.98;;;;;;;8.34;100.00;101639.47;5076958;28;20060;-51
2022/01/11 02:38:32;;;;;;;26.87;13.87;;;;;;;8.34;100.00;101643.91;5077176;28;20543;-50
2022/01/11 02:41:00;;;;;;;27.55;15.30;;;;;;;8.35;100.00;101650.91;5077364;28;20298;-51
2022/01/11 02:43:28;;;;;;;30.73;14.90;;;;;;;8.32;100.00;101653.66;5077903;28;20054;-50
2022/01/11 02:45:58;;;;;;;30.42;14.68;;;;;;;8.32;100.00;101648.34;5077020;28;20059;-51
2022/01/11 02:48:27;;;;;;;34.45;16.77;;;;;;;8.35;100.00;101650.91;5076979;28;20515;-52
2022/01/11 02:50:55;;;;;;;30.00;15.65;;;;;;;8.31;100.00;101650.16;5078060;28;20083;-52
2022/01/11 02:53:25;;;;;;;29.85;14.85;;;;;;;8.32;100.00;101656.28;5076873;28;20052;-49
2022/01/11 02:55:53;;;;;;;33.83;15.82;;;;;;;8.38;100.00;101658.72;5076566;28;20057;-49
2022/01/11 02:58:21;;;;;;;34.17;16.73;;;;;;;8.41;100.00;101660.44;5076745;28;20064;-51
2022/01/11 03:00:49;;;;;;;31.35;15.55;;;;;;;8.44;100.00;101658.56;5076752;28;20052;-51
2022/01/11 03:03:22;;;;;;;35.30;17.23;;;;;;;8.51;100.00;101652.13;5076662;28;20063;-49
2022/01/11 03:05:52;;;;;;;30.38;16.20;;;;;;;8.58;100.00;101662.50;5076394;28;20139;-50
2022/01/11 03:08:21;;;;;;;33.80;15.50;;;;;;;8.57;100.00;101660.75;5076413;28;20048;-51
2022/01/11 03:10:51;;;;;;;33.42;15.23;;;;;;;8.48;100.00;101667.25;5076348;28;20433;-51
2022/01/11 03:13:20;;;;;;;29.90;14.48;;;;;;;8.48;100.00;101673.38;5076311;28;20052;-51
2022/01/11 03:15:49;;;;;;;29.42;14.73;;;;;;;8.45;100.00;101668.19;5076529;28;20059;-51
2022/01/11 03:18:17;;;;;;;27.92;14.10;;;;;;;8.44;100.00;101665.59;5077543;28;20082;-51
2022/01/11 03:20:47;;;;;;;26.00;14.48;;;;;;;8.51;100.00;101667.16;5076293;28;20060;-50
2022/01/11 03:23:16;;;;;;;26.50;14.05;;;;;;;8.50;100.00;101670.69;5076344;28;20060;-51
2022/01/11 03:25:45;;;;;;;27.65;14.00;;;;;;;8.54;100.00;101667.03;5077108;28;20065;-52
2022/01/11 03:28:14;;;;;;;27.30;13.80;;;;;;;8.55;100.00;101666.09;5076800;28;20500;-52
2022/01/11 03:30:43;;;;;;;27.98;14.40;;;;;;;8.59;100.00;101665.09;5076478;28;20064;-52
2022/01/11 03:33:11;;;;;;;26.30;14.07;;;;;;;8.58;100.00;101673.09;5076782;28;20163;-52
2022/01/11 03:35:41;;;;;;;23.60;13.32;;;;;;;8.55;100.00;101668.75;5076544;28;20067;-51
2022/01/11 03:38:11;;;;;;;25.77;13.93;;;;;;;8.59;100.00;101674.78;5076964;28;20052;-52
2022/01/11 03:40:40;;;;;;;29.30;14.55;;;;;;;8.61;100.00;101675.59;5077071;28;20052;-51
2022/01/11 03:43:09;;;;;;;21.80;13.02;;;;;;;8.61;100.00;101667.66;5075792;28;20059;-52
2022/01/11 03:45:38;;;;;;;26.33;12.88;;;;;;;8.57;100.00;101671.34;5075968;28;20071;-50
2022/01/11 03:48:08;;;;;;;24.52;13.15;;;;;;;8.57;100.00;101671.34;5076702;28;20399;-51
2022/01/11 03:50:37;;;;;;;26.67;13.35;;;;;;;8.50;100.00;101663.63;5076674;28;20067;-50
2022/01/11 03:53:15;;;;;;;22.92;12.43;;;;;;;8.45;100.00;101654.13;5075753;28;20053;-50
2022/01/11 03:55:59;;;;;;;22.58;11.90;;;;;;;8.38;100.00;101648.16;5076873;28;20397;-51
2022/01/11 03:58:29;;;;;;;22.00;12.23;;;;;;;8.30;100.00;101647.56;5075349;28;20057;-52
2022/01/11 04:00:59;;;;;;;21.27;12.68;;;;;;;8.24;100.00;101647.75;5075503;28;20056;-52
2022/01/11 04:03:27;;;;;;;20.50;12.07;;;;;;;8.13;100.00;101658.69;5075307;28;20083;-52
2022/01/11 04:05:56;;;;;;;21.45;13.10;;;;;;;8.06;100.00;101655.41;5076329;28;20057;-51
2022/01/11 04:08:24;;;;;;;19.13;11.20;;;;;;;7.93;100.00;101662.00;5075476;28;20060;-49
2022/01/11 04:10:52;;;;;;;19.13;11.65;;;;;;;7.82;100.00;101663.22;5075380;28;20060;-49
2022/01/11 04:13:21;;;;;;;22.63;11.52;;;;;;;7.79;100.00;101652.75;5075325;28;20059;-50
2022/01/11 04:15:49;;;;;;;20.75;11.35;;;;;;;7.79;100.00;101668.59;5076132;28;20052;-52
2022/01/11 04:18:19;;;;;;;21.38;11.82;;;;;;;7.76;100.00;101673.97;5076040;28;20088;-51
2022/01/11 04:20:47;;;;;;;21.52;12.63;;;;;;;7.87;100.00;101680.69;5076200;28;20067;-49
2022/01/11 04:23:16;;;;;;;19.63;11.30;;;;;;;7.97;100.00;101679.50;5075133;28;20539;-51
2022/01/11 04:25:44;;;;;;;20.95;12.05;;;;;;;7.94;100.00;101682.25;5075147;28;20056;-50
2022/01/11 04:28:12;;;;;;;20.08;11.15;;;;;;;7.92;100.00;101684.06;5076163;28;20060;-49
2022/01/11 04:30:40;;;;;;;20.67;11.80;;;;;;;7.90;100.00;101696.44;5075323;28;20052;-51
2022/01/11 04:33:09;;;;;;;18.60;10.93;;;;;;;7.92;100.00;101690.22;5074953;28;20501;-51
2022/01/11 04:35:38;;;;;;;17.48;10.98;;;;;;;7.97;100.00;101696.22;5074642;28;20070;-51
2022/01/11 04:38:06;;;;;;;17.15;10.45;;;;;;;7.99;100.00;101701.44;5075130;28;20049;-51
2022/01/11 04:40:35;;;;;;;17.70;10.02;;;;;;;8.02;100.00;101701.34;5075213;28;20060;-51
2022/01/11 04:43:03;;;;;;;16.73;10.23;;;;;;;8.05;100.00;101698.59;5075606;28;20083;-51
2022/01/11 04:45:31;;;;;;;16.90;9.90;;;;;;;8.10;100.00;101709.91;5075525;28;20053;-51
2022/01/11 04:48:00;;;;;;;18.92;10.48;;;;;;;8.08;100.00;101701.13;5074951;28;20052;-51
2022/01/11 04:50:29;;;;;;;18.15;11.15;;;;;;;8.11;100.00;101708.13;5074588;28;20063;-52
2022/01/11 04:52:59;;;;;;;17.10;10.88;;;;;;;8.13;100.00;101707.13;5075130;28;20067;-51
2022/01/11 04:55:28;;;;;;;19.80;11.65;;;;;;;8.13;100.00;101703.63;5074967;28;20048;-52
2022/01/11 04:57:57;;;;;;;18.83;10.73;;;;;;;8.16;100.00;101709.69;5074508;28;20424;-51
2022/01/11 05:00:25;;;;;;;19.98;10.48;;;;;;;8.14;100.00;101706.22;5074694;28;20063;-51
2022/01/11 05:02:57;;;;;;;23.52;12.10;;;;;;;8.13;100.00;101709.78;5074699;28;20512;-49
2022/01/11 05:05:26;;;;;;;15.80;10.65;;;;;;;8.09;100.00;101708.16;5074434;28;20060;-49
2022/01/11 05:07:54;;;;;;;18.85;11.43;;;;;;;8.06;100.00;101718.81;5074164;28;20542;-49
2022/01/11 05:10:24;;;;;;;21.58;11.27;;;;;;;8.10;100.00;101715.19;5074074;28;20067;-51
2022/01/11 05:12:53;;;;;;;22.35;10.88;;;;;;;8.07;100.00;101719.69;5074838;28;20057;-51
2022/01/11 05:15:23;;;;;;;18.45;11.57;;;;;;;8.08;100.00;101721.41;5074054;28;20401;-51
2022/01/11 05:17:51;;;;;;;18.80;10.98;;;;;;;8.00;100.00;101725.19;5075171;28;20052;-51
2022/01/11 05:20:19;;;;;;;19.55;11.65;;;;;;;8.06;100.00;101732.03;5074150;28;20057;-51
2022/01/11 05:22:48;;;;;;;17.40;11.55;;;;;;;8.09;100.00;101724.00;5074461;28;20056;-49
2022/01/11 05:25:16;;;;;;;21.80;11.93;;;;;;;8.15;100.00;101730.88;5075323;28;20056;-51
2022/01/11 05:27:46;;;;;;;18.20;10.50;;;;;;;8.13;100.00;101730.06;5074522;28;20053;-51
2022/01/11 05:30:17;;;;;;;17.58;10.30;;;;;;;8.05;100.00;101735.59;5073839;28;20140;-50
2022/01/11 05:32:45;;;;;;;22.27;10.95;;;;;;;8.05;100.00;101732.09;5074412;28;20057;-51
2022/01/11 05:35:14;;;;;;;16.13;10.55;;;;;;;8.07;100.00;101739.06;5074634;28;20062;-50
2022/01/11 05:37:43;;;;;;;18.45;10.98;;;;;;;8.11;100.00;101738.03;5073974;28;20053;-49
2022/01/11 05:40:12;;;;;;;19.92;11.32;;;;;;;8.14;100.00;101732.66;5075083;28;20066;-51
2022/01/11 05:42:41;;;;;;;20.10;11.00;;;;;;;8.10;100.00;101744.25;5073982;28;20550;-51
2022/01/11 05:45:13;;;;;;;18.85;11.57;;;;;;;8.08;100.00;101743.41;5074882;28;20068;-51
2022/01/11 05:47:41;;;;;;;16.90;10.02;;;;;;;8.12;100.00;101745.06;5074020;28;20054;-51
2022/01/11 05:50:11;;;;;;;20.52;11.93;;;;;;;8.17;100.00;101748.41;5074267;28;20056;-52
2022/01/11 05:52:42;;;;;;;19.38;10.50;;;;;;;8.09;100.00;101747.81;5073872;28;20535;-50
2022/01/11 05:55:11;;;;;;;21.13;11.80;;;;;;;8.09;100.00;101758.38;5074462;28;20053;-52
2022/01/11 05:57:41;;;;;;;19.70;12.05;;;;;;;8.07;100.00;101752.28;5074114;28;20381;-51
2022/01/11 06:00:14;;;;;;;21.20;12.20;;;;;;;8.14;100.00;101768.81;5073952;28;20057;-50
2022/01/11 06:02:46;;;;;;;21.63;12.18;;;;;;;8.08;100.00;101755.78;5073522;28;20053;-50
2022/01/11 06:05:16;;;;;;;21.02;11.60;;;;;;;8.11;100.00;101763.63;5074685;28;20052;-51
2022/01/11 06:07:44;;;;;;;26.42;11.77;;;;;;;8.03;100.00;101771.78;5077118;28;20052;-50
2022/01/11 06:10:14;;;;;;;19.55;11.52;;;;;;;8.07;100.00;101760.22;5078550;28;20072;-52
2022/01/11 06:12:42;;;;;;;22.13;13.05;;;;;;;8.12;100.00;101766.22;5077871;28;20052;-52
2022/01/11 06:15:12;;;;;;;25.17;14.30;;;;;;;8.08;100.00;101759.28;5077361;28;20554;-50
2022/01/11 06:17:40;;;;;;;28.33;15.65;;;;;;;8.06;100.00;101770.81;5077488;28;20053;-51
2022/01/11 06:20:10;;;;;;;26.75;14.13;;;;;;;8.02;100.00;101775.34;5078260;28;20053;-51
2022/01/11 06:22:38;;;;;;;22.40;13.05;;;;;;;8.04;100.00;101781.44;5077561;28;20064;-52
2022/01/11 06:25:08;;;;;;;21.85;12.90;;;;;;;7.97;100.00;101782.56;5078576;28;20408;-50
2022/01/11 06:27:39;;;;;;;30.23;15.38;;;;;;;8.01;100.00;101784.16;5077633;28;20052;-51
2022/01/11 06:30:16;;;;;;;23.05;12.98;;;;;;;8.03;100.00;101784.13;5077312;28;20513;-51
2022/01/11 06:32:44;;;;;;;30.50;15.63;;;;;;;8.00;100.00;101779.78;5077613;28;20056;-51
2022/01/11 06:35:14;;;;;;;27.73;14.45;;;;;;;8.03;100.00;101792.91;5076912;28;20056;-50
2022/01/11 06:37:42;;;;;;;24.48;14.60;;;;;;;8.08;100.00;101790.13;5077422;28;20052;-51
2022/01/11 06:40:12;;;;;;;26.38;14.55;;;;;;;8.02;100.00;101793.84;5077347;28;20079;-50
2022/01/11 06:42:40;;;;;;;25.27;13.90;;;;;;;8.02;100.00;101801.78;5077140;28;20052;-49
2022/01/11 06:45:10;;;;;;;25.92;14.73;;;;;;;8.04;100.00;101805.22;5076756;28;20052;-50
2022/01/11 06:47:42;;;;;;;21.17;13.13;;;;;;;8.07;100.00;101802.50;5077192;28;20539;-50
2022/01/11 06:50:11;;;;;;;17.02;9.68;;;;;;;8.06;100.00;101798.09;5076659;28;20057;-51
2022/01/11 06:52:39;;;;;;;27.88;12.38;;;;;;;8.10;100.00;101799.75;5077193;28;20060;-51
2022/01/11 06:55:09;;;;;;;22.05;12.00;;;;;;;8.08;100.00;101804.19;5076549;28;20059;-49
2022/01/11 06:57:37;;;;;;;21.80;11.52;;;;;;;8.17;100.00;101806.56;5077253;28;20154;-50
2022/01/11 07:00:08;;;;;;;25.27;13.13;;;;;;;8.12;100.00;101803.22;5077016;28;20052;-51
2022/01/11 07:02:37;;;;;;;20.08;10.43;;;;;;;8.08;100.00;101812.13;5076989;28;20056;-52
2022/01/11 07:05:08;;;;;;;25.23;13.63;;;;;;;8.06;100.00;101811.31;5077771;28;20053;-51
2022/01/11 07:07:37;;;;;;;25.60;14.23;;;;;;;8.09;100.00;101813.88;5076391;28;20435;-52
2022/01/11 07:10:06;;;;;;;24.45;14.18;;;;;;;8.07;100.00;101812.16;5078474;28;20061;-49
2022/01/11 07:12:34;;;;;;;24.98;13.25;;;;;;;8.11;100.00;101816.47;5076566;28;20060;-51
2022/01/11 07:15:02;;;;;;;23.42;13.05;;;;;;;8.11;100.00;101817.31;5076294;28;20067;-51
2022/01/11 07:17:31;;;;;;;25.02;13.18;;;;;;;8.09;100.00;101818.31;5075291;28;20063;-51
2022/01/11 07:19:59;;;;;;;24.65;13.90;;;;;;;8.10;100.00;101823.53;5076952;28;20083;-51
2022/01/11 07:22:29;;;;;;;24.60;12.93;;;;;;;8.06;100.00;101819.25;5076791;28;20079;-52
2022/01/11 07:24:57;;;;;;;25.85;14.02;;;;;;;8.05;100.00;101824.56;5076411;28;20071;-50
2022/01/11 07:27:25;;;;;;;27.08;15.43;;;;;;;8.06;100.00;101824.53;5076576;28;20504;-49
2022/01/11 07:29:54;;;;;;;28.15;14.10;;;;;;;8.07;100.00;101834.22;5076247;28;20056;-52
2022/01/11 07:32:22;;;;;;;24.00;13.18;;;;;;;8.07;100.00;101831.56;5076615;28;20079;-52
2022/01/11 07:34:50;;;;;;;22.92;12.73;;;;;;;8.09;100.00;101837.66;5077073;28;20057;-49
2022/01/11 07:37:18;;;;;;;21.77;12.98;;;;;;;8.14;100.00;101837.53;5076386;28;20052;-51
2022/01/11 07:39:48;;;;;;;24.92;12.90;;;;;;;8.09;100.00;101840.31;5077170;28;20060;-51
2022/01/11 07:42:16;;;;;;;24.60;12.75;;;;;;;8.15;100.00;101844.53;5076613;28;20479;-51
2022/01/11 07:44:46;;;;;;;26.67;13.48;;;;;;;8.13;100.00;101847.22;5076734;28;20056;-52
2022/01/11 07:47:14;;;;;;;22.33;12.50;;;;;;;8.09;100.00;101856.16;5076201;28;20052;-50
2022/01/11 07:49:42;;;;;;;25.50;12.90;;;;;;;8.09;100.00;101860.59;5077014;28;20056;-51
2022/01/11 07:52:10;;;;;;;22.90;12.57;;;;;;;8.06;100.00;101860.69;5076089;28;20447;-51
2022/01/11 07:54:38;;;;;;;25.25;13.30;;;;;;;8.09;100.00;101861.44;5075566;28;20052;-50
2022/01/11 07:57:08;;;;;;;24.52;13.20;;;;;;;8.02;100.00;101862.56;5075661;28;20067;-52
2022/01/11 07:59:36;;;;;;;22.20;12.63;;;;;;;7.87;100.00;101860.34;5076404;28;20435;-50
2022/01/11 08:02:23;;;;;;;23.65;13.18;;;;;;;7.89;100.00;101879.66;5076675;28;20061;-49
2022/01/11 08:04:53;;;;;;;24.48;13.73;;;;;;;7.89;100.00;101874.38;5075325;28;20064;-52
2022/01/11 08:07:21;;;;;;;25.70;14.40;;;;;;;7.90;100.00;101882.28;5076134;28;20070;-51
2022/01/11 08:09:49;;;;;;;25.63;14.05;;;;;;;7.96;100.00;101883.88;5075945;28;20135;-51
2022/01/11 08:12:19;;;;;;;26.27;14.90;;;;;;;7.94;100.00;101893.63;5075387;28;20512;-50
2022/01/11 08:14:48;;;;;;;27.58;15.40;;;;;;;7.98;100.00;101895.25;5075782;28;20454;-52
2022/01/11 08:17:16;;;;;;;30.35;16.38;;;;;;;8.08;100.00;101899.34;5075302;28;20147;-50
2022/01/11 08:19:46;;;;;;;30.45;16.60;;;;;;;8.09;100.00;101895.81;5075260;28;20063;-52
2022/01/11 08:22:14;;;;;;;26.33;15.43;;;;;;;8.09;100.00;101898.44;5075418;28;20056;-51
2022/01/11 08:24:44;;;;;;;24.10;14.70;;;;;;;8.17;100.00;101900.88;5075202;28;20052;-51
2022/01/11 08:27:14;;;;;;;23.42;13.13;;;;;;;8.18;100.00;101908.72;5074886;28;20538;-49
2022/01/11 08:29:43;;;;;;;23.52;13.30;;;;;;;8.21;100.00;101912.22;5074806;28;20056;-50
2022/01/11 08:32:12;;;;;;;23.85;13.73;;;;;;;8.22;100.00;101919.22;5075575;28;20139;-52
2022/01/11 08:34:40;;;;;;;22.23;13.13;;;;;;;8.21;100.00;101912.22;5074944;28;20063;-50
2022/01/11 08:37:08;;;;;;;29.45;15.00;;;;;;;8.21;100.00;101913.06;5075209;28;20052;-51
2022/01/11 08:39:37;;;;;;;25.33;14.25;;;;;;;8.11;100.00;101923.03;5074848;28;20053;-50
2022/01/11 08:42:05;;;;;;;22.38;13.10;;;;;;;8.19;100.00;101921.03;5075581;28;20070;-52
2022/01/11 08:44:34;;;;;;;25.55;13.48;;;;;;;8.26;100.00;101915.59;5074716;28;20423;-52
2022/01/11 08:47:04;;;;;;;25.88;13.55;;;;;;;8.33;100.00;101925.06;5074714;28;20064;-52
2022/01/11 08:49:32;;;;;;;21.65;13.10;;;;;;;8.43;100.00;101923.03;5074657;28;20052;-50
2022/01/11 08:52:00;;;;;;;21.42;12.68;;;;;;;8.54;100.00;101924.44;5075350;28;20488;-52
2022/01/11 08:54:29;;;;;;;30.20;14.05;;;;;;;8.62;100.00;101923.31;5074844;28;20059;-52
2022/01/11 08:56:57;;;;;;;22.40;12.23;;;;;;;8.72;100.00;101927.41;5074509;28;20064;-52
2022/01/11 08:59:26;;;;;;;21.65;13.05;;;;;;;8.85;100.00;101931.41;5073678;28;20056;-49
2022/01/11 09:02:03;;;;;;;24.65;12.77;;;;;;;8.92;100.00;101932.06;5075310;28;20389;-52
2022/01/11 09:04:32;;;;;;;25.50;13.02;;;;;;;8.99;100.00;101930.94;5074067;28;20052;-51
2022/01/11 09:07:00;;;;;;;22.70;12.02;;;;;;;9.05;100.00;101945.78;5074141;28;20052;-51
2022/01/11 09:09:31;;;;;;;20.75;10.88;;;;;;;9.16;100.00;101946.25;5074117;28;20056;-50
2022/01/11 09:12:02;;;;;;;20.98;11.43;;;;;;;9.43;100.00;101943.59;5074881;28;20140;-51
2022/01/11 09:14:31;;;;;;;13.47;9.10;;;;;;;9.63;100.00;101957.03;5074898;28;20416;-52
2022/01/11 09:17:02;;;;;;;20.90;10.85;;;;;;;9.82;100.00;101951.94;5074265;28;20548;-49
2022/01/11 09:19:32;;;;;;;14.77;7.75;;;;;;;10.00;100.00;101961.03;5075439;28;20057;-52
2022/01/11 09:22:01;;;;;;;13.73;9.50;;;;;;;10.17;100.00;101962.16;5073757;28;20060;-52
2022/01/11 09:24:36;;;;;;;17.05;10.32;;;;;;;10.20;100.00;101957.63;5074150;28;20068;-49
2022/01/11 09:27:05;;;;;;;15.20;9.13;;;;;;;10.15;100.00;101964.00;5074421;28;20048;-51
2022/01/11 09:29:36;;;;;;;14.02;9.00;;;;;;;10.17;100.00;101972.75;5074068;28;20056;-50
2022/01/11 09:32:06;;;;;;;14.00;7.93;;;;;;;10.17;100.00;101970.13;5074571;28;20140;-52
2022/01/11 09:34:38;;;;;;;15.60;7.85;;;;;;;10.16;100.00;101976.34;5074705;28;20463;-52
2022/01/11 09:37:08;;;;;;;11.77;7.50;;;;;;;10.18;100.00;101979.81;5074023;28;20135;-51
2022/01/11 09:39:38;;;;;;;11.90;7.97;;;;;;;10.22;100.00;101982.28;5073961;28;20063;-51
2022/01/11 09:42:07;;;;;;;11.45;7.50;;;;;;;10.19;100.00;101977.09;5073625;28;20060;-51
2022/01/11 09:44:38;;;;;;;11.50;7.13;;;;;;;10.17;100.00;101978.97;5074625;28;20056;-52
2022/01/11 09:47:08;;;;;;;10.73;6.82;;;;;;;10.19;100.00;101987.72;5073729;28;20060;-51
2022/01/11 09:49:38;;;;;;;9.70;7.03;;;;;;;10.19;100.00;101992.16;5074462;28;20075;-50
2022/01/11 09:52:07;;;;;;;11.10;7.57;;;;;;;10.23;100.00;101988.47;5074177;28;20468;-52
2022/01/11 09:54:36;;;;;;;11.15;7.38;;;;;;;10.25;100.00;101986.59;5074321;28;20056;-52
2022/01/11 09:57:05;;;;;;;10.90;7.40;;;;;;;10.34;100.00;101986.31;5073788;28;20060;-49
2022/01/11 09:59:34;;;;;;;10.80;6.55;;;;;;;10.38;100.00;101989.72;5074132;28;20052;-51
2022/01/11 10:02:02;;;;;;;12.65;7.88;;;;;;;10.58;100.00;101991.59;5074266;28;20158;-52
2022/01/11 10:04:34;;;;;;;13.40;7.43;;;;;;;10.73;100.00;101988.34;5073426;28;20064;-52
2022/01/11 10:07:05;;;;;;;11.57;7.45;;;;;;;10.94;100.00;101989.31;5074316;28;20056;-52
2022/01/11 10:09:43;;;;;;;10.02;6.60;;;;;;;11.16;100.00;101999.03;5074522;28;20139;-52
2022/01/11 10:12:13;;;;;;;12.20;7.13;;;;;;;11.51;100.00;102008.19;5073702;28;20068;-52
2022/01/11 10:14:47;;;;;;;11.73;7.00;;;;;;;11.76;100.00;102008.94;5074146;28;20059;-52
2022/01/11 10:17:18;;;;;;;13.73;7.35;;;;;;;11.98;100.00;102009.75;5074278;28;20063;-52
2022/01/11 10:19:49;;;;;;;13.95;7.85;;;;;;;12.34;100.00;102024.13;5073079;28;20059;-52
2022/01/11 10:22:20;;;;;;;15.07;8.30;;;;;;;12.56;100.00;102030.22;5072730;28;20057;-50
2022/01/11 10:24:50;;;;;;;11.38;8.05;;;;;;;12.87;100.00;102030.56;5073813;28;20079;-50
2022/01/11 10:27:21;;;;;;;12.45;6.88;;;;;;;13.31;100.00;102033.72;5073789;28;20071;-52
2022/01/11 10:29:52;;;;;;;13.68;7.28;;;;;;;14.10;99.96;102041.31;5073885;28;20079;-52
2022/01/11 10:32:23;;;;;;;8.45;5.32;;;;;;;14.99;97.39;102040.97;5073405;28;20076;-53
2022/01/11 10:34:55;;;;;;;8.35;5.15;;;;;;;15.52;88.01;102041.50;5073178;28;20059;-52
2022/01/11 10:37:38;;;;;;;9.82;5.40;;;;;;;15.63;85.29;102050.69;5074763;28;20408;-51
2022/01/11 10:40:10;;;;;;;8.57;4.30;;;;;;;15.61;84.06;102045.44;5074316;28;20452;-51
2022/01/11 10:42:44;;;;;;;7.85;4.88;;;;;;;15.38;84.54;102054.81;5073116;28;20053;-51
2022/01/11 10:45:14;;;;;;;6.03;4.30;;;;;;;15.11;85.34;102042.06;5073469;28;20071;-50
2022/01/11 10:47:44;;;;;;;7.35;4.40;;;;;;;14.73;84.18;102047.78;5073340;28;20063;-50
2022/01/11 10:50:15;;;;;;;6.45;4.25;;;;;;;14.34;85.24;102050.75;5073673;28;20070;-50
2022/01/11 10:52:45;;;;;;;7.40;4.27;;;;;;;13.97;87.82;102045.59;5076239;28;20401;-52
2022/01/11 10:55:16;;;;;;;8.38;4.43;;;;;;;13.79;88.77;102042.06;5076861;28;20527;-51
2022/01/11 10:57:45;;;;;;;6.90;4.90;;;;;;;13.48;90.43;102045.41;5078063;28;20056;-50
2022/01/11 11:00:17;;;;;;;6.95;4.38;;;;;;;13.05;92.44;102039.50;5077108;28;20048;-50
2022/01/11 11:02:49;;;;;;;9.65;4.53;;;;;;;12.83;94.55;102048.50;5077886;28;20396;-51
2022/01/11 11:05:23;;;;;;;8.75;5.00;;;;;;;12.60;96.70;102054.91;5076454;28;20060;-50
2022/01/11 11:08:00;;;;;;;9.05;5.32;;;;;;;12.49;98.23;102055.41;5076447;28;20062;-52
2022/01/11 11:10:40;;;;;;;10.95;4.70;;;;;;;12.35;98.81;102052.50;5076523;28;20063;-52
2022/01/11 11:13:10;;;;;;;8.00;4.82;;;;;;;12.34;100.00;102054.28;5076344;28;20079;-50
2022/01/11 11:15:40;;;;;;;7.43;5.20;;;;;;;12.37;100.00;102051.50;5076979;28;20065;-50
2022/01/11 11:18:23;;;;;;;10.02;6.50;;;;;;;12.45;100.00;102054.66;5076191;28;20056;-50
2022/01/11 11:20:52;;;;;;;7.88;4.95;;;;;;;12.65;100.00;102050.22;5077316;28;20052;-51
2022/01/11 11:23:21;;;;;;;10.23;5.32;;;;;;;12.89;100.00;102036.69;5076261;28;20063;-50
2022/01/11 11:25:50;;;;;;;8.80;5.18;;;;;;;13.32;98.78;102047.97;5076342;28;20056;-49
2022/01/11 11:28:21;;;;;;;7.85;4.40;;;;;;;13.42;95.86;102045.72;5076250;28;20068;-52
2022/01/11 11:30:50;;;;;;;7.40;4.97;;;;;;;13.57;95.95;102045.81;5076434;28;20065;-51